sensor_id;sensor_type;location;lat;lon;timestamp;temperature;humidity
65544;HTU21D;52173;45.204;39.240;2023-07-28T00:02:14;0.00;0.00
65544;HTU21D;52173;45.204;39.240;2023-07-28T00:04:40;0.00;0.00
65544;HTU21D;52173;45.204;39.240;2023-07-28T00:07:06;0.00;0.00
65544;HTU21D;52173;45.204;39.240;2023-07-28T00:09:32;0.00;0.00
65544;HTU21D;52173;45.204;39.240;2023-07-28T00:12:00;0.00;0.00
65544;HTU21D;52173;45.204;39.240;2023-07-28T00:14:26;0.00;0.00
65544;HTU21D;52173;45.204;39.240;2023-07-28T00:16:53;0.00;0.00
65544;HTU21D;52173;45.204;39.240;2023-07-28T00:19:22;0.00;0.00
65544;HTU21D;52173;45.204;39.240;2023-07-28T00:21:49;0.00;0.00
65544;HTU21D;52173;45.204;39.240;2023-07-28T00:24:16;0.00;0.00
65544;HTU21D;52173;45.204;39.240;2023-07-28T00:26:43;0.00;0.00
65544;HTU21D;52173;45.204;39.240;2023-07-28T00:29:10;0.00;0.00
65544;HTU21D;52173;45.204;39.240;2023-07-28T00:31:36;0.00;0.00
65544;HTU21D;52173;45.204;39.240;2023-07-28T00:34:03;0.00;0.00
65544;HTU21D;52173;45.204;39.240;2023-07-28T00:36:30;0.00;0.00
65544;HTU21D;52173;45.204;39.240;2023-07-28T00:38:56;0.00;0.00
65544;HTU21D;52173;45.204;39.240;2023-07-28T00:41:23;0.00;0.00
65544;HTU21D;52173;45.204;39.240;2023-07-28T00:43:49;0.00;0.00
65544;HTU21D;52173;45.204;39.240;2023-07-28T00:46:16;0.00;0.00
65544;HTU21D;52173;45.204;39.240;2023-07-28T00:48:43;0.00;0.00
65544;HTU21D;52173;45.204;39.240;2023-07-28T00:51:09;0.00;0.00
65544;HTU21D;52173;45.204;39.240;2023-07-28T00:53:35;0.00;0.00
65544;HTU21D;52173;45.204;39.240;2023-07-28T00:56:04;0.00;0.00
65544;HTU21D;52173;45.204;39.240;2023-07-28T00:58:31;0.00;0.00
65544;HTU21D;52173;45.204;39.240;2023-07-28T01:00:57;0.00;0.00
65544;HTU21D;52173;45.204;39.240;2023-07-28T01:03:24;0.00;0.00
65544;HTU21D;52173;45.204;39.240;2023-07-28T01:06:15;0.00;0.00
65544;HTU21D;52173;45.204;39.240;2023-07-28T01:11:20;0.00;0.00
65544;HTU21D;52173;45.204;39.240;2023-07-28T01:13:47;0.00;0.00
65544;HTU21D;52173;45.204;39.240;2023-07-28T01:16:13;0.00;0.00
65544;HTU21D;52173;45.204;39.240;2023-07-28T01:18:39;0.00;0.00
65544;HTU21D;52173;45.204;39.240;2023-07-28T01:21:08;0.00;0.00
65544;HTU21D;52173;45.204;39.240;2023-07-28T01:26:31;0.00;0.00
65544;HTU21D;52173;45.204;39.240;2023-07-28T01:28:57;0.00;0.00
65544;HTU21D;52173;45.204;39.240;2023-07-28T01:31:25;0.00;0.00
65544;HTU21D;52173;45.204;39.240;2023-07-28T01:33:51;0.00;0.00
65544;HTU21D;52173;45.204;39.240;2023-07-28T01:36:17;0.00;0.00
65544;HTU21D;52173;45.204;39.240;2023-07-28T01:38:43;0.00;0.00
65544;HTU21D;52173;45.204;39.240;2023-07-28T01:41:10;0.00;0.00
65544;HTU21D;52173;45.204;39.240;2023-07-28T01:43:36;0.00;0.00
65544;HTU21D;52173;45.204;39.240;2023-07-28T01:46:02;0.00;0.00
65544;HTU21D;52173;45.204;39.240;2023-07-28T01:48:28;0.00;0.00
65544;HTU21D;52173;45.204;39.240;2023-07-28T01:50:54;0.00;0.00
65544;HTU21D;52173;45.204;39.240;2023-07-28T01:53:20;0.00;0.00
65544;HTU21D;52173;45.204;39.240;2023-07-28T01:55:46;0.00;0.00
65544;HTU21D;52173;45.204;39.240;2023-07-28T01:58:12;0.00;0.00
65544;HTU21D;52173;45.204;39.240;2023-07-28T02:00:38;0.00;0.00
65544;HTU21D;52173;45.204;39.240;2023-07-28T02:03:04;0.00;0.00
65544;HTU21D;52173;45.204;39.240;2023-07-28T02:05:31;0.00;0.00
65544;HTU21D;52173;45.204;39.240;2023-07-28T02:07:57;0.00;0.00
65544;HTU21D;52173;45.204;39.240;2023-07-28T02:10:23;0.00;0.00
65544;HTU21D;52173;45.204;39.240;2023-07-28T02:12:50;0.00;0.00
65544;HTU21D;52173;45.204;39.240;2023-07-28T02:15:17;0.00;0.00
65544;HTU21D;52173;45.204;39.240;2023-07-28T02:17:43;0.00;0.00
65544;HTU21D;52173;45.204;39.240;2023-07-28T02:20:10;0.00;0.00
65544;HTU21D;52173;45.204;39.240;2023-07-28T02:22:42;0.00;0.00
65544;HTU21D;52173;45.204;39.240;2023-07-28T02:25:09;0.00;0.00
65544;HTU21D;52173;45.204;39.240;2023-07-28T02:27:36;0.00;0.00
65544;HTU21D;52173;45.204;39.240;2023-07-28T02:30:04;0.00;86.45
65544;HTU21D;52173;45.204;39.240;2023-07-28T02:32:30;24.08;86.42
65544;HTU21D;52173;45.204;39.240;2023-07-28T02:34:57;24.09;86.42
65544;HTU21D;52173;45.204;39.240;2023-07-28T02:37:24;24.10;86.45
65544;HTU21D;52173;45.204;39.240;2023-07-28T02:39:50;24.12;86.46
65544;HTU21D;52173;45.204;39.240;2023-07-28T02:42:16;24.15;86.53
65544;HTU21D;52173;45.204;39.240;2023-07-28T02:44:43;24.19;86.52
65544;HTU21D;52173;45.204;39.240;2023-07-28T02:47:09;24.23;86.49
65544;HTU21D;52173;45.204;39.240;2023-07-28T02:49:35;24.27;86.45
65544;HTU21D;52173;45.204;39.240;2023-07-28T02:52:01;24.31;86.43
65544;HTU21D;52173;45.204;39.240;2023-07-28T02:54:29;24.39;86.39
65544;HTU21D;52173;45.204;39.240;2023-07-28T02:56:55;24.43;86.29
65544;HTU21D;52173;45.204;39.240;2023-07-28T02:59:21;24.47;86.22
65544;HTU21D;52173;45.204;39.240;2023-07-28T03:01:49;24.53;86.19
65544;HTU21D;52173;45.204;39.240;2023-07-28T03:04:18;24.55;86.36
65544;HTU21D;52173;45.204;39.240;2023-07-28T03:07:25;24.56;86.29
65544;HTU21D;52173;45.204;39.240;2023-07-28T03:09:58;24.57;86.19
65544;HTU21D;52173;45.204;39.240;2023-07-28T03:12:25;24.63;86.16
65544;HTU21D;52173;45.204;39.240;2023-07-28T03:14:52;24.72;86.19
65544;HTU21D;52173;45.204;39.240;2023-07-28T03:17:18;24.78;86.07
65544;HTU21D;52173;45.204;39.240;2023-07-28T03:19:44;24.86;85.97
65544;HTU21D;52173;45.204;39.240;2023-07-28T03:22:10;24.92;85.87
65544;HTU21D;52173;45.204;39.240;2023-07-28T03:24:36;24.97;85.88
65544;HTU21D;52173;45.204;39.240;2023-07-28T03:27:03;25.03;85.84
65544;HTU21D;52173;45.204;39.240;2023-07-28T03:29:29;25.09;85.73
65544;HTU21D;52173;45.204;39.240;2023-07-28T03:31:55;25.19;85.72
65544;HTU21D;52173;45.204;39.240;2023-07-28T03:34:22;25.28;85.58
65544;HTU21D;52173;45.204;39.240;2023-07-28T03:36:49;25.35;85.56
65544;HTU21D;52173;45.204;39.240;2023-07-28T03:39:16;25.40;85.29
65544;HTU21D;52173;45.204;39.240;2023-07-28T03:41:45;25.44;85.34
65544;HTU21D;52173;45.204;39.240;2023-07-28T03:44:12;25.47;85.24
65544;HTU21D;52173;45.204;39.240;2023-07-28T03:46:39;25.52;85.27
65544;HTU21D;52173;45.204;39.240;2023-07-28T03:49:05;25.58;85.26
65544;HTU21D;52173;45.204;39.240;2023-07-28T03:51:31;25.64;85.30
65544;HTU21D;52173;45.204;39.240;2023-07-28T03:53:58;25.71;85.21
65544;HTU21D;52173;45.204;39.240;2023-07-28T03:56:24;25.80;85.09
65544;HTU21D;52173;45.204;39.240;2023-07-28T03:58:50;25.96;84.93
65544;HTU21D;52173;45.204;39.240;2023-07-28T04:01:16;26.11;84.49
65544;HTU21D;52173;45.204;39.240;2023-07-28T04:03:42;26.21;84.18
65544;HTU21D;52173;45.204;39.240;2023-07-28T04:06:11;26.31;83.89
65544;HTU21D;52173;45.204;39.240;2023-07-28T04:08:40;0.00;0.00
65544;HTU21D;52173;45.204;39.240;2023-07-28T04:11:37;0.00;0.00
65544;HTU21D;52173;45.204;39.240;2023-07-28T04:14:04;0.00;0.00
65544;HTU21D;52173;45.204;39.240;2023-07-28T04:16:30;0.00;0.00
65544;HTU21D;52173;45.204;39.240;2023-07-28T04:18:57;0.00;0.00
65544;HTU21D;52173;45.204;39.240;2023-07-28T04:21:23;0.00;0.00
65544;HTU21D;52173;45.204;39.240;2023-07-28T04:23:49;0.00;0.00
65544;HTU21D;52173;45.204;39.240;2023-07-28T04:26:16;0.00;0.00
65544;HTU21D;52173;45.204;39.240;2023-07-28T04:28:44;0.00;0.00
65544;HTU21D;52173;45.204;39.240;2023-07-28T04:31:11;0.00;0.00
65544;HTU21D;52173;45.204;39.240;2023-07-28T04:33:57;0.00;0.00
65544;HTU21D;52173;45.204;39.240;2023-07-28T04:36:30;30.91;72.51
65544;HTU21D;52173;45.204;39.240;2023-07-28T04:38:57;31.05;70.89
65544;HTU21D;52173;45.204;39.240;2023-07-28T04:41:24;30.79;70.45
65544;HTU21D;52173;45.204;39.240;2023-07-28T04:43:52;30.23;70.81
65544;HTU21D;52173;45.204;39.240;2023-07-28T04:46:20;29.65;71.68
65544;HTU21D;52173;45.204;39.240;2023-07-28T04:48:53;29.09;72.80
65544;HTU21D;52173;45.204;39.240;2023-07-28T04:51:37;0.00;0.00
65544;HTU21D;52173;45.204;39.240;2023-07-28T04:54:22;0.00;0.00
65544;HTU21D;52173;45.204;39.240;2023-07-28T04:56:48;0.00;0.00
65544;HTU21D;52173;45.204;39.240;2023-07-28T04:59:16;0.00;0.00
65544;HTU21D;52173;45.204;39.240;2023-07-28T05:01:42;0.00;0.00
65544;HTU21D;52173;45.204;39.240;2023-07-28T05:04:08;0.00;0.00
65544;HTU21D;52173;45.204;39.240;2023-07-28T05:06:34;0.00;0.00
65544;HTU21D;52173;45.204;39.240;2023-07-28T05:09:01;0.00;0.00
65544;HTU21D;52173;45.204;39.240;2023-07-28T05:11:34;0.00;0.00
65544;HTU21D;52173;45.204;39.240;2023-07-28T05:14:00;0.00;0.00
65544;HTU21D;52173;45.204;39.240;2023-07-28T05:16:28;0.00;0.00
65544;HTU21D;52173;45.204;39.240;2023-07-28T05:19:14;0.00;0.00
65544;HTU21D;52173;45.204;39.240;2023-07-28T05:21:52;0.00;0.00
65544;HTU21D;52173;45.204;39.240;2023-07-28T05:24:23;0.00;0.00
65544;HTU21D;52173;45.204;39.240;2023-07-28T05:26:49;0.00;0.00
65544;HTU21D;52173;45.204;39.240;2023-07-28T05:29:15;0.00;0.00
65544;HTU21D;52173;45.204;39.240;2023-07-28T05:31:43;30.60;69.09
65544;HTU21D;52173;45.204;39.240;2023-07-28T05:34:23;30.93;68.10
65544;HTU21D;52173;45.204;39.240;2023-07-28T05:36:49;31.01;67.20
65544;HTU21D;52173;45.204;39.240;2023-07-28T05:39:16;30.83;66.92
65544;HTU21D;52173;45.204;39.240;2023-07-28T05:41:44;30.45;67.20
65544;HTU21D;52173;45.204;39.240;2023-07-28T05:44:13;29.94;67.87
65544;HTU21D;52173;45.204;39.240;2023-07-28T05:46:39;29.47;68.88
65544;HTU21D;52173;45.204;39.240;2023-07-28T05:49:05;29.09;69.90
65544;HTU21D;52173;45.204;39.240;2023-07-28T05:51:32;28.74;70.56
65544;HTU21D;52173;45.204;39.240;2023-07-28T05:53:58;28.42;71.17
65544;HTU21D;52173;45.204;39.240;2023-07-28T05:56:24;28.13;71.77
65544;HTU21D;52173;45.204;39.240;2023-07-28T05:58:50;27.90;72.44
65544;HTU21D;52173;45.204;39.240;2023-07-28T06:01:17;27.72;73.03
65544;HTU21D;52173;45.204;39.240;2023-07-28T06:04:05;27.56;73.77
65544;HTU21D;52173;45.204;39.240;2023-07-28T06:06:37;0.00;0.00
65544;HTU21D;52173;45.204;39.240;2023-07-28T06:09:03;0.00;0.00
65544;HTU21D;52173;45.204;39.240;2023-07-28T06:11:30;0.00;0.00
65544;HTU21D;52173;45.204;39.240;2023-07-28T06:13:56;0.00;0.00
65544;HTU21D;52173;45.204;39.240;2023-07-28T06:16:24;0.00;0.00
65544;HTU21D;52173;45.204;39.240;2023-07-28T06:18:51;0.00;0.00
65544;HTU21D;52173;45.204;39.240;2023-07-28T06:21:20;0.00;0.00
65544;HTU21D;52173;45.204;39.240;2023-07-28T06:23:47;0.00;0.00
65544;HTU21D;52173;45.204;39.240;2023-07-28T06:26:13;0.00;0.00
65544;HTU21D;52173;45.204;39.240;2023-07-28T06:28:40;0.00;0.00
65544;HTU21D;52173;45.204;39.240;2023-07-28T06:31:06;0.00;0.00
65544;HTU21D;52173;45.204;39.240;2023-07-28T06:33:32;0.00;0.00
65544;HTU21D;52173;45.204;39.240;2023-07-28T06:35:58;33.78;62.11
65544;HTU21D;52173;45.204;39.240;2023-07-28T06:38:24;35.06;59.19
65544;HTU21D;52173;45.204;39.240;2023-07-28T06:41:01;36.07;55.40
65544;HTU21D;52173;45.204;39.240;2023-07-28T06:43:37;36.75;52.81
65544;HTU21D;52173;45.204;39.240;2023-07-28T06:46:06;37.33;50.29
65544;HTU21D;52173;45.204;39.240;2023-07-28T06:48:33;37.71;48.71
65544;HTU21D;52173;45.204;39.240;2023-07-28T06:50:59;37.86;47.64
65544;HTU21D;52173;45.204;39.240;2023-07-28T06:53:27;37.78;48.46
65544;HTU21D;52173;45.204;39.240;2023-07-28T06:55:53;38.38;47.48
65544;HTU21D;52173;45.204;39.240;2023-07-28T06:58:22;38.61;45.79
65544;HTU21D;52173;45.204;39.240;2023-07-28T07:00:48;39.12;45.34
65544;HTU21D;52173;45.204;39.240;2023-07-28T07:03:14;39.48;43.43
65544;HTU21D;52173;45.204;39.240;2023-07-28T07:05:40;0.00;0.00
65544;HTU21D;52173;45.204;39.240;2023-07-28T07:08:07;0.00;0.00
65544;HTU21D;52173;45.204;39.240;2023-07-28T07:10:34;0.00;0.00
65544;HTU21D;52173;45.204;39.240;2023-07-28T07:13:00;0.00;0.00
65544;HTU21D;52173;45.204;39.240;2023-07-28T07:15:26;0.00;0.00
65544;HTU21D;52173;45.204;39.240;2023-07-28T07:17:54;0.00;0.00
65544;HTU21D;52173;45.204;39.240;2023-07-28T07:20:20;0.00;0.00
65544;HTU21D;52173;45.204;39.240;2023-07-28T07:22:46;0.00;0.00
65544;HTU21D;52173;45.204;39.240;2023-07-28T07:25:13;0.00;0.00
65544;HTU21D;52173;45.204;39.240;2023-07-28T07:27:39;0.00;0.00
65544;HTU21D;52173;45.204;39.240;2023-07-28T07:30:06;0.00;0.00
65544;HTU21D;52173;45.204;39.240;2023-07-28T07:32:33;0.00;0.00
65544;HTU21D;52173;45.204;39.240;2023-07-28T07:35:00;0.00;0.00
65544;HTU21D;52173;45.204;39.240;2023-07-28T07:37:26;0.00;0.00
65544;HTU21D;52173;45.204;39.240;2023-07-28T07:39:52;0.00;0.00
65544;HTU21D;52173;45.204;39.240;2023-07-28T07:42:18;0.00;0.00
65544;HTU21D;52173;45.204;39.240;2023-07-28T07:44:44;0.00;0.00
65544;HTU21D;52173;45.204;39.240;2023-07-28T07:47:14;0.00;0.00
65544;HTU21D;52173;45.204;39.240;2023-07-28T07:49:41;0.00;0.00
65544;HTU21D;52173;45.204;39.240;2023-07-28T07:52:08;0.00;0.00
65544;HTU21D;52173;45.204;39.240;2023-07-28T07:54:37;0.00;0.00
65544;HTU21D;52173;45.204;39.240;2023-07-28T07:57:04;0.00;0.00
65544;HTU21D;52173;45.204;39.240;2023-07-28T07:59:30;0.00;0.00
65544;HTU21D;52173;45.204;39.240;2023-07-28T08:01:59;0.00;0.00
65544;HTU21D;52173;45.204;39.240;2023-07-28T08:04:26;0.00;0.00
65544;HTU21D;52173;45.204;39.240;2023-07-28T08:06:53;0.00;0.00
65544;HTU21D;52173;45.204;39.240;2023-07-28T08:09:20;0.00;0.00
65544;HTU21D;52173;45.204;39.240;2023-07-28T08:11:46;0.00;0.00
65544;HTU21D;52173;45.204;39.240;2023-07-28T08:14:12;0.00;0.00
65544;HTU21D;52173;45.204;39.240;2023-07-28T08:16:38;0.00;0.00
65544;HTU21D;52173;45.204;39.240;2023-07-28T08:19:05;0.00;0.00
65544;HTU21D;52173;45.204;39.240;2023-07-28T08:21:31;0.00;0.00
65544;HTU21D;52173;45.204;39.240;2023-07-28T08:24:03;0.00;0.00
65544;HTU21D;52173;45.204;39.240;2023-07-28T08:26:30;0.00;0.00
65544;HTU21D;52173;45.204;39.240;2023-07-28T08:28:56;0.00;0.00
65544;HTU21D;52173;45.204;39.240;2023-07-28T08:31:22;0.00;0.00
65544;HTU21D;52173;45.204;39.240;2023-07-28T08:33:49;0.00;0.00
65544;HTU21D;52173;45.204;39.240;2023-07-28T08:36:15;0.00;0.00
65544;HTU21D;52173;45.204;39.240;2023-07-28T08:38:41;0.00;0.00
65544;HTU21D;52173;45.204;39.240;2023-07-28T08:41:08;0.00;0.00
65544;HTU21D;52173;45.204;39.240;2023-07-28T08:43:34;0.00;0.00
65544;HTU21D;52173;45.204;39.240;2023-07-28T08:46:00;0.00;0.00
65544;HTU21D;52173;45.204;39.240;2023-07-28T08:48:27;0.00;0.00
65544;HTU21D;52173;45.204;39.240;2023-07-28T08:50:53;0.00;0.00
65544;HTU21D;52173;45.204;39.240;2023-07-28T08:53:19;0.00;0.00
65544;HTU21D;52173;45.204;39.240;2023-07-28T08:55:45;0.00;0.00
65544;HTU21D;52173;45.204;39.240;2023-07-28T08:58:21;0.00;0.00
65544;HTU21D;52173;45.204;39.240;2023-07-28T09:00:48;0.00;0.00
65544;HTU21D;52173;45.204;39.240;2023-07-28T09:03:16;0.00;0.00
65544;HTU21D;52173;45.204;39.240;2023-07-28T09:05:43;0.00;0.00
65544;HTU21D;52173;45.204;39.240;2023-07-28T09:08:10;0.00;0.00
65544;HTU21D;52173;45.204;39.240;2023-07-28T09:10:47;0.00;0.00
65544;HTU21D;52173;45.204;39.240;2023-07-28T09:13:18;0.00;0.00
65544;HTU21D;52173;45.204;39.240;2023-07-28T09:15:44;0.00;0.00
65544;HTU21D;52173;45.204;39.240;2023-07-28T09:18:19;0.00;0.00
65544;HTU21D;52173;45.204;39.240;2023-07-28T09:20:46;0.00;0.00
65544;HTU21D;52173;45.204;39.240;2023-07-28T09:23:13;0.00;0.00
65544;HTU21D;52173;45.204;39.240;2023-07-28T09:25:41;0.00;0.00
65544;HTU21D;52173;45.204;39.240;2023-07-28T09:28:07;0.00;0.00
65544;HTU21D;52173;45.204;39.240;2023-07-28T09:30:47;0.00;0.00
65544;HTU21D;52173;45.204;39.240;2023-07-28T09:33:32;0.00;0.00
65544;HTU21D;52173;45.204;39.240;2023-07-28T09:36:08;0.00;0.00
65544;HTU21D;52173;45.204;39.240;2023-07-28T09:38:36;0.00;0.00
65544;HTU21D;52173;45.204;39.240;2023-07-28T09:41:04;0.00;0.00
65544;HTU21D;52173;45.204;39.240;2023-07-28T09:43:36;0.00;0.00
65544;HTU21D;52173;45.204;39.240;2023-07-28T09:46:07;0.00;0.00
65544;HTU21D;52173;45.204;39.240;2023-07-28T09:48:34;0.00;0.00
65544;HTU21D;52173;45.204;39.240;2023-07-28T09:51:14;0.00;0.00
65544;HTU21D;52173;45.204;39.240;2023-07-28T09:53:47;0.00;0.00
65544;HTU21D;52173;45.204;39.240;2023-07-28T09:56:19;0.00;0.00
65544;HTU21D;52173;45.204;39.240;2023-07-28T09:58:50;0.00;0.00
65544;HTU21D;52173;45.204;39.240;2023-07-28T10:01:21;0.00;0.00
65544;HTU21D;52173;45.204;39.240;2023-07-28T10:03:49;0.00;0.00
65544;HTU21D;52173;45.204;39.240;2023-07-28T10:06:17;0.00;0.00
65544;HTU21D;52173;45.204;39.240;2023-07-28T10:08:44;0.00;0.00
65544;HTU21D;52173;45.204;39.240;2023-07-28T10:11:15;0.00;0.00
65544;HTU21D;52173;45.204;39.240;2023-07-28T10:13:44;0.00;0.00
65544;HTU21D;52173;45.204;39.240;2023-07-28T10:16:12;0.00;0.00
65544;HTU21D;52173;45.204;39.240;2023-07-28T10:18:41;0.00;0.00
65544;HTU21D;52173;45.204;39.240;2023-07-28T10:21:18;0.00;0.00
65544;HTU21D;52173;45.204;39.240;2023-07-28T10:23:44;0.00;0.00
65544;HTU21D;52173;45.204;39.240;2023-07-28T10:26:10;0.00;0.00
65544;HTU21D;52173;45.204;39.240;2023-07-28T10:28:38;0.00;0.00
65544;HTU21D;52173;45.204;39.240;2023-07-28T10:31:10;0.00;0.00
65544;HTU21D;52173;45.204;39.240;2023-07-28T10:33:44;0.00;0.00
65544;HTU21D;52173;45.204;39.240;2023-07-28T10:36:21;0.00;0.00
65544;HTU21D;52173;45.204;39.240;2023-07-28T10:39:12;0.00;0.00
65544;HTU21D;52173;45.204;39.240;2023-07-28T10:41:38;0.00;0.00
65544;HTU21D;52173;45.204;39.240;2023-07-28T10:44:05;0.00;0.00
65544;HTU21D;52173;45.204;39.240;2023-07-28T10:46:35;0.00;0.00
65544;HTU21D;52173;45.204;39.240;2023-07-28T10:49:05;0.00;0.00
65544;HTU21D;52173;45.204;39.240;2023-07-28T10:51:32;0.00;0.00
65544;HTU21D;52173;45.204;39.240;2023-07-28T10:54:00;0.00;0.00
65544;HTU21D;52173;45.204;39.240;2023-07-28T10:56:28;0.00;0.00
65544;HTU21D;52173;45.204;39.240;2023-07-28T10:58:59;0.00;0.00
65544;HTU21D;52173;45.204;39.240;2023-07-28T11:01:35;0.00;0.00
65544;HTU21D;52173;45.204;39.240;2023-07-28T11:04:16;0.00;0.00
65544;HTU21D;52173;45.204;39.240;2023-07-28T11:06:47;0.00;0.00
65544;HTU21D;52173;45.204;39.240;2023-07-28T11:09:16;0.00;0.00
65544;HTU21D;52173;45.204;39.240;2023-07-28T11:11:43;0.00;0.00
65544;HTU21D;52173;45.204;39.240;2023-07-28T11:14:09;0.00;0.00
65544;HTU21D;52173;45.204;39.240;2023-07-28T11:16:37;0.00;0.00
65544;HTU21D;52173;45.204;39.240;2023-07-28T11:19:07;0.00;0.00
65544;HTU21D;52173;45.204;39.240;2023-07-28T11:21:39;0.00;0.00
65544;HTU21D;52173;45.204;39.240;2023-07-28T11:24:10;0.00;0.00
65544;HTU21D;52173;45.204;39.240;2023-07-28T11:26:38;0.00;0.00
65544;HTU21D;52173;45.204;39.240;2023-07-28T11:29:05;0.00;0.00
65544;HTU21D;52173;45.204;39.240;2023-07-28T11:31:32;0.00;0.00
65544;HTU21D;52173;45.204;39.240;2023-07-28T11:34:02;0.00;0.00
65544;HTU21D;52173;45.204;39.240;2023-07-28T11:36:31;0.00;0.00
65544;HTU21D;52173;45.204;39.240;2023-07-28T11:38:58;0.00;0.00
65544;HTU21D;52173;45.204;39.240;2023-07-28T11:41:26;0.00;0.00
65544;HTU21D;52173;45.204;39.240;2023-07-28T11:43:53;0.00;0.00
65544;HTU21D;52173;45.204;39.240;2023-07-28T11:46:42;0.00;0.00
65544;HTU21D;52173;45.204;39.240;2023-07-28T11:49:16;0.00;0.00
65544;HTU21D;52173;45.204;39.240;2023-07-28T11:51:46;0.00;0.00
65544;HTU21D;52173;45.204;39.240;2023-07-28T11:54:16;0.00;0.00
65544;HTU21D;52173;45.204;39.240;2023-07-28T11:56:46;0.00;0.00
65544;HTU21D;52173;45.204;39.240;2023-07-28T11:59:17;0.00;0.00
65544;HTU21D;52173;45.204;39.240;2023-07-28T12:02:11;0.00;0.00
65544;HTU21D;52173;45.204;39.240;2023-07-28T12:04:38;0.00;0.00
65544;HTU21D;52173;45.204;39.240;2023-07-28T12:07:07;0.00;0.00
65544;HTU21D;52173;45.204;39.240;2023-07-28T12:12:44;0.00;0.00
65544;HTU21D;52173;45.204;39.240;2023-07-28T12:15:28;0.00;0.00
65544;HTU21D;52173;45.204;39.240;2023-07-28T12:20:26;0.00;0.00
65544;HTU21D;52173;45.204;39.240;2023-07-28T12:22:52;0.00;0.00
65544;HTU21D;52173;45.204;39.240;2023-07-28T12:25:18;0.00;0.00
65544;HTU21D;52173;45.204;39.240;2023-07-28T12:27:45;0.00;0.00
65544;HTU21D;52173;45.204;39.240;2023-07-28T12:30:11;0.00;0.00
65544;HTU21D;52173;45.204;39.240;2023-07-28T12:32:37;0.00;0.00
65544;HTU21D;52173;45.204;39.240;2023-07-28T12:35:03;0.00;0.00
65544;HTU21D;52173;45.204;39.240;2023-07-28T12:37:30;0.00;0.00
65544;HTU21D;52173;45.204;39.240;2023-07-28T12:39:57;0.00;0.00
65544;HTU21D;52173;45.204;39.240;2023-07-28T12:42:23;0.00;0.00
65544;HTU21D;52173;45.204;39.240;2023-07-28T12:44:49;0.00;0.00
65544;HTU21D;52173;45.204;39.240;2023-07-28T12:47:15;0.00;0.00
65544;HTU21D;52173;45.204;39.240;2023-07-28T12:49:42;0.00;0.00
65544;HTU21D;52173;45.204;39.240;2023-07-28T12:52:08;0.00;0.00
65544;HTU21D;52173;45.204;39.240;2023-07-28T12:54:35;0.00;0.00
65544;HTU21D;52173;45.204;39.240;2023-07-28T12:57:01;0.00;0.00
65544;HTU21D;52173;45.204;39.240;2023-07-28T12:59:27;0.00;0.00
65544;HTU21D;52173;45.204;39.240;2023-07-28T13:01:55;0.00;0.00
65544;HTU21D;52173;45.204;39.240;2023-07-28T13:04:21;0.00;0.00
65544;HTU21D;52173;45.204;39.240;2023-07-28T13:06:48;0.00;0.00
65544;HTU21D;52173;45.204;39.240;2023-07-28T13:09:14;0.00;0.00
65544;HTU21D;52173;45.204;39.240;2023-07-28T13:11:40;0.00;0.00
65544;HTU21D;52173;45.204;39.240;2023-07-28T13:14:06;0.00;0.00
65544;HTU21D;52173;45.204;39.240;2023-07-28T13:16:32;0.00;0.00
65544;HTU21D;52173;45.204;39.240;2023-07-28T13:18:58;0.00;0.00
65544;HTU21D;52173;45.204;39.240;2023-07-28T13:21:25;0.00;0.00
65544;HTU21D;52173;45.204;39.240;2023-07-28T13:23:51;0.00;0.00
65544;HTU21D;52173;45.204;39.240;2023-07-28T13:26:18;0.00;0.00
65544;HTU21D;52173;45.204;39.240;2023-07-28T13:28:44;0.00;0.00
65544;HTU21D;52173;45.204;39.240;2023-07-28T13:31:16;0.00;0.00
65544;HTU21D;52173;45.204;39.240;2023-07-28T13:33:43;0.00;0.00
65544;HTU21D;52173;45.204;39.240;2023-07-28T13:36:10;0.00;0.00
65544;HTU21D;52173;45.204;39.240;2023-07-28T13:38:36;0.00;0.00
65544;HTU21D;52173;45.204;39.240;2023-07-28T13:41:05;0.00;0.00
65544;HTU21D;52173;45.204;39.240;2023-07-28T13:43:32;0.00;0.00
65544;HTU21D;52173;45.204;39.240;2023-07-28T13:46:00;0.00;0.00
65544;HTU21D;52173;45.204;39.240;2023-07-28T13:48:27;0.00;0.00
65544;HTU21D;52173;45.204;39.240;2023-07-28T13:50:53;0.00;0.00
65544;HTU21D;52173;45.204;39.240;2023-07-28T13:53:19;0.00;0.00
65544;HTU21D;52173;45.204;39.240;2023-07-28T13:55:45;0.00;0.00
65544;HTU21D;52173;45.204;39.240;2023-07-28T13:58:11;0.00;0.00
65544;HTU21D;52173;45.204;39.240;2023-07-28T14:00:37;0.00;0.00
65544;HTU21D;52173;45.204;39.240;2023-07-28T14:03:04;0.00;0.00
65544;HTU21D;52173;45.204;39.240;2023-07-28T14:05:30;0.00;0.00
65544;HTU21D;52173;45.204;39.240;2023-07-28T14:07:56;0.00;0.00
65544;HTU21D;52173;45.204;39.240;2023-07-28T14:10:25;0.00;0.00
65544;HTU21D;52173;45.204;39.240;2023-07-28T14:12:51;0.00;0.00
65544;HTU21D;52173;45.204;39.240;2023-07-28T14:15:18;0.00;0.00
65544;HTU21D;52173;45.204;39.240;2023-07-28T14:17:44;0.00;0.00
65544;HTU21D;52173;45.204;39.240;2023-07-28T14:20:10;0.00;0.00
65544;HTU21D;52173;45.204;39.240;2023-07-28T14:22:37;0.00;0.00
65544;HTU21D;52173;45.204;39.240;2023-07-28T14:25:03;0.00;0.00
65544;HTU21D;52173;45.204;39.240;2023-07-28T14:27:30;0.00;0.00
65544;HTU21D;52173;45.204;39.240;2023-07-28T14:29:56;0.00;0.00
65544;HTU21D;52173;45.204;39.240;2023-07-28T14:32:22;0.00;0.00
65544;HTU21D;52173;45.204;39.240;2023-07-28T14:34:48;0.00;0.00
65544;HTU21D;52173;45.204;39.240;2023-07-28T14:37:14;0.00;0.00
65544;HTU21D;52173;45.204;39.240;2023-07-28T14:39:41;0.00;0.00
65544;HTU21D;52173;45.204;39.240;2023-07-28T14:42:07;0.00;0.00
65544;HTU21D;52173;45.204;39.240;2023-07-28T14:44:33;0.00;0.00
65544;HTU21D;52173;45.204;39.240;2023-07-28T14:46:59;0.00;0.00
65544;HTU21D;52173;45.204;39.240;2023-07-28T14:49:25;0.00;0.00
65544;HTU21D;52173;45.204;39.240;2023-07-28T14:51:56;0.00;0.00
65544;HTU21D;52173;45.204;39.240;2023-07-28T14:54:24;0.00;0.00
65544;HTU21D;52173;45.204;39.240;2023-07-28T14:56:50;0.00;0.00
65544;HTU21D;52173;45.204;39.240;2023-07-28T14:59:16;0.00;0.00
65544;HTU21D;52173;45.204;39.240;2023-07-28T15:01:44;0.00;0.00
65544;HTU21D;52173;45.204;39.240;2023-07-28T15:04:10;0.00;0.00
65544;HTU21D;52173;45.204;39.240;2023-07-28T15:06:39;0.00;0.00
65544;HTU21D;52173;45.204;39.240;2023-07-28T15:09:05;0.00;0.00
65544;HTU21D;52173;45.204;39.240;2023-07-28T15:11:32;0.00;0.00
65544;HTU21D;52173;45.204;39.240;2023-07-28T15:13:58;0.00;0.00
65544;HTU21D;52173;45.204;39.240;2023-07-28T15:16:24;0.00;0.00
65544;HTU21D;52173;45.204;39.240;2023-07-28T15:18:51;0.00;0.00
65544;HTU21D;52173;45.204;39.240;2023-07-28T15:21:17;0.00;0.00
65544;HTU21D;52173;45.204;39.240;2023-07-28T15:23:45;0.00;0.00
65544;HTU21D;52173;45.204;39.240;2023-07-28T15:26:12;0.00;0.00
65544;HTU21D;52173;45.204;39.240;2023-07-28T15:28:38;0.00;0.00
65544;HTU21D;52173;45.204;39.240;2023-07-28T15:31:04;0.00;0.00
65544;HTU21D;52173;45.204;39.240;2023-07-28T15:33:30;0.00;0.00
65544;HTU21D;52173;45.204;39.240;2023-07-28T15:35:57;0.00;0.00
65544;HTU21D;52173;45.204;39.240;2023-07-28T15:38:23;0.00;0.00
65544;HTU21D;52173;45.204;39.240;2023-07-28T15:40:49;0.00;0.00
65544;HTU21D;52173;45.204;39.240;2023-07-28T15:43:16;0.00;0.00